Topsham, Maine
Current Conditions -  °F | °C
As of 7:53 AM on Wednesday 22 Oct 2014 (Local Time) from KIWI Reporting Station
Light Rain Light Rain  
Wind Chill: 46°   Ceiling: 6000
Heat Index: 48°   Visibility: 10mi
Dew Point: 46°   Wind: 5mph
Humidity: 93%   Direction: NA
Pressure: 30.15"   Gusts: NA
Location:  43.93°N, 69.96°W
Report Text: KIWI 221153Z AUTO VRB04KT 10SM -RA FEW046 BKN060 OVC075 09/08 A3015 RMK AO2 RAB19 SLP208 P0001 60010 70123 T00890078 10106 20089 51010
Loading
Personal Weather Stations






























Interactive Weather Map
Tropical Storm Tracking
New forecast layout! Learn more

10-Day Weather Forecast

Advertisements
Track Severe Weather on mobile